Time,TemperatureF,DewpointF,PressureIn,WindDirection,WindDirectionDegrees,WindSpeedMPH,WindSpeedGustMPH,Humidity,HourlyPrecipIn,Conditions,Clouds,dailyrainin,SoftwareType,DateUTC
2013-08-22 00:42:00,64.0,40.0,29.66,North,0,0.0,-999.0,41,0.00,,,-99.99,,2013-08-22 07:42:00,
2013-08-22 00:52:00,64.0,40.0,29.66,North,0,0.0,-999.0,41,0.00,,,-99.99,,2013-08-22 07:52:00,
2013-08-22 01:43:00,63.0,38.0,29.67,North,0,0.0,-999.0,40,0.00,,,-99.99,,2013-08-22 08:43:00,
2013-08-22 01:53:00,63.0,38.0,29.67,North,0,0.0,-999.0,40,0.00,,,-99.99,,2013-08-22 08:53:00,
2013-08-22 02:53:00,63.0,36.0,29.65,North,0,0.0,-999.0,36,0.00,,,-99.99,,2013-08-22 09:53:00,
2013-08-22 05:42:00,64.0,37.0,29.64,North,0,0.0,-999.0,36,0.00,,,-99.99,,2013-08-22 12:42:00,
2013-08-22 05:52:00,64.0,37.0,29.64,North,0,0.0,-999.0,36,0.00,,,-99.99,,2013-08-22 12:52:00,
2013-08-22 06:42:00,64.0,36.0,29.67,North,0,0.0,-999.0,35,0.00,,,-99.99,,2013-08-22 13:42:00,
2013-08-22 06:52:00,64.0,36.0,29.67,North,0,0.0,-999.0,35,0.00,,,-99.99,,2013-08-22 13:52:00,
2013-08-22 07:42:00,64.0,38.0,29.70,SW,230,1.0,-999.0,38,0.00,,,-99.99,,2013-08-22 14:42:00,
2013-08-22 07:52:00,64.0,38.0,29.70,SW,230,1.0,-999.0,38,0.00,,,-99.99,,2013-08-22 14:52:00,
2013-08-22 07:54:00,66.0,41.0,29.72,North,0,0.0,-999.0,40,0.00,,,-99.99,,2013-08-22 14:54:00,
2013-08-22 08:43:00,66.0,41.0,29.72,North,0,0.0,-999.0,40,0.00,,,-99.99,,2013-08-22 15:43:00,
2013-08-22 09:43:00,69.0,38.0,29.73,SSE,160,3.0,-999.0,32,0.00,,,-99.99,,2013-08-22 16:43:00,
2013-08-22 09:53:00,69.0,38.0,29.73,SSE,160,3.0,-999.0,32,0.00,,,-99.99,,2013-08-22 16:53:00,
2013-08-22 10:24:00,72.0,37.0,29.71,West,270,3.0,-999.0,28,0.00,,,-99.99,,2013-08-22 17:24:00,
2013-08-22 10:33:00,72.0,37.0,29.71,West,270,3.0,-999.0,28,0.00,,,-99.99,,2013-08-22 17:33:00,
2013-08-22 10:43:00,72.0,37.0,29.71,West,270,3.0,-999.0,28,0.00,,,-99.99,,2013-08-22 17:43:00,
2013-08-22 10:52:00,72.0,37.0,29.71,West,270,3.0,-999.0,28,0.00,,,-99.99,,2013-08-22 17:52:00,
2013-08-22 11:43:00,75.0,37.0,29.68,WSW,240,1.0,-999.0,25,0.00,,,-99.99,,2013-08-22 18:43:00,
2013-08-22 11:52:00,75.0,37.0,29.68,WSW,240,1.0,-999.0,25,0.00,,,-99.99,,2013-08-22 18:52:00,
2013-08-22 12:22:00,75.0,38.0,29.68,SSW,210,1.0,-999.0,26,0.00,,,-99.99,,2013-08-22 19:22:00,
2013-08-22 12:32:00,75.0,38.0,29.68,SSW,210,1.0,-999.0,26,0.00,,,-99.99,,2013-08-22 19:32:00,
2013-08-22 12:42:00,75.0,38.0,29.68,SSW,210,1.0,-999.0,26,0.00,,,-99.99,,2013-08-22 19:42:00,
2013-08-22 12:53:00,75.0,38.0,29.68,SSW,210,1.0,-999.0,26,0.00,,,-99.99,,2013-08-22 19:53:00,
2013-08-22 13:42:00,75.0,36.0,29.68,South,190,2.0,-999.0,24,0.00,,,-99.99,,2013-08-22 20:42:00,
2013-08-22 13:52:00,75.0,36.0,29.68,South,190,2.0,-999.0,24,0.00,,,-99.99,,2013-08-22 20:52:00,
2013-08-22 13:54:00,75.0,36.0,29.68,North,0,0.0,-999.0,24,0.00,,,-99.99,,2013-08-22 20:54:00,
2013-08-22 14:44:00,75.0,36.0,29.68,North,0,0.0,-999.0,24,0.00,,,-99.99,,2013-08-22 21:44:00,
2013-08-22 15:24:00,75.0,35.0,29.65,SW,230,2.0,-999.0,23,0.00,,,-99.99,,2013-08-22 22:24:00,
2013-08-22 15:34:00,75.0,35.0,29.65,SW,230,2.0,-999.0,23,0.00,,,-99.99,,2013-08-22 22:34:00,
2013-08-22 15:42:00,75.0,35.0,29.65,SW,230,2.0,-999.0,23,0.00,,,-99.99,,2013-08-22 22:42:00,
2013-08-22 15:53:00,75.0,35.0,29.65,SW,230,2.0,-999.0,23,0.00,,,-99.99,,2013-08-22 22:53:00,
2013-08-22 16:22:00,73.0,36.0,29.64,North,0,0.0,-999.0,26,0.00,,,-99.99,,2013-08-22 23:22:00,
2013-08-22 16:33:00,73.0,36.0,29.64,North,0,0.0,-999.0,26,0.00,,,-99.99,,2013-08-22 23:33:00,
2013-08-22 16:42:00,73.0,36.0,29.64,North,0,0.0,-999.0,26,0.00,,,-99.99,,2013-08-22 23:42:00,
2013-08-22 16:52:00,73.0,36.0,29.64,North,0,0.0,-999.0,26,0.00,,,-99.99,,2013-08-22 23:52:00,
2013-08-22 17:23:00,73.0,38.0,29.60,North,0,0.0,-999.0,28,0.00,,,-99.99,,2013-08-23 00:23:00,
2013-08-22 17:33:00,73.0,38.0,29.60,North,0,0.0,-999.0,28,0.00,,,-99.99,,2013-08-23 00:33:00,
2013-08-22 17:42:00,73.0,38.0,29.60,North,0,0.0,-999.0,28,0.00,,,-99.99,,2013-08-23 00:42:00,
2013-08-22 17:52:00,73.0,38.0,29.60,North,0,0.0,-999.0,28,0.00,,,-99.99,,2013-08-23 00:52:00,
2013-08-22 18:21:00,71.0,36.0,29.63,SSW,210,1.0,-999.0,28,0.00,,,-99.99,,2013-08-23 01:21:00,
2013-08-22 18:33:00,71.0,36.0,29.63,SSW,210,1.0,-999.0,28,0.00,,,-99.99,,2013-08-23 01:33:00,
2013-08-22 18:42:00,71.0,36.0,29.63,SSW,210,1.0,-999.0,28,0.00,,,-99.99,,2013-08-23 01:42:00,
2013-08-22 18:52:00,71.0,36.0,29.63,SSW,210,1.0,-999.0,28,0.00,,,-99.99,,2013-08-23 01:52:00,
2013-08-22 19:22:00,69.0,35.0,29.64,SW,220,1.0,-999.0,29,0.00,,,-99.99,,2013-08-23 02:22:00,
2013-08-22 19:32:00,69.0,35.0,29.64,SW,220,1.0,-999.0,29,0.00,,,-99.99,,2013-08-23 02:32:00,
2013-08-22 19:42:00,69.0,35.0,29.64,SW,220,1.0,-999.0,29,0.00,,,-99.99,,2013-08-23 02:42:00,
2013-08-22 19:52:00,69.0,35.0,29.64,SW,220,1.0,-999.0,29,0.00,,,-99.99,,2013-08-23 02:52:00,
2013-08-22 19:54:00,66.0,35.0,29.66,North,0,0.0,-999.0,32,0.00,,,-99.99,,2013-08-23 02:54:00,
2013-08-22 20:44:00,66.0,35.0,29.66,North,0,0.0,-999.0,32,0.00,,,-99.99,,2013-08-23 03:44:00,
2013-08-22 20:54:00,66.0,36.0,29.66,South,180,1.0,-999.0,33,0.00,,,-99.99,,2013-08-23 03:54:00,
2013-08-22 21:24:00,66.0,36.0,29.66,South,180,1.0,-999.0,33,0.00,,,-99.99,,2013-08-23 04:24:00,
2013-08-22 21:34:00,66.0,36.0,29.66,South,180,1.0,-999.0,33,0.00,,,-99.99,,2013-08-23 04:34:00,
2013-08-22 21:43:00,66.0,36.0,29.66,South,180,1.0,-999.0,33,0.00,,,-99.99,,2013-08-23 04:43:00,
2013-08-22 22:22:00,65.0,35.0,29.64,North,0,0.0,-999.0,33,0.00,,,-99.99,,2013-08-23 05:22:00,
2013-08-22 22:34:00,65.0,35.0,29.64,North,0,0.0,-999.0,33,0.00,,,-99.99,,2013-08-23 05:34:00,
2013-08-22 22:42:00,65.0,35.0,29.64,North,0,0.0,-999.0,33,0.00,,,-99.99,,2013-08-23 05:42:00,
2013-08-22 22:52:00,65.0,35.0,29.64,North,0,0.0,-999.0,33,0.00,,,-99.99,,2013-08-23 05:52:00,
2013-08-22 23:41:00,64.0,34.0,29.63,North,0,0.0,-999.0,33,0.00,,,-99.99,,2013-08-23 06:41:00,
2013-08-22 23:52:00,64.0,34.0,29.63,North,0,0.0,-999.0,33,0.00,,,-99.99,,2013-08-23 06:52:00,